Time;durP1;ratioP1;P1;durP2;ratioP2;P2;SDS_P1;SDS_P2;PMS_P1;PMS_P2;Temp;Humidity;BMP_temperature;BMP_pressure;BME280_temperature;BME280_humidity;BME280_pressure;Samples;Min_cycle;Max_cycle;Signal;HPM_P1;HPM_P2
2023/04/09 00:01:02;;;;;;;204.43;12.15;;;;;;;;;;5036961;28;20046;-55
2023/04/09 00:03:27;;;;;;;209.90;12.35;;;;;;;;;;5037654;28;20030;-58
2023/04/09 00:05:54;;;;;;;181.30;11.13;;;;;;;;;;5036756;28;20068;-55
2023/04/09 00:08:19;;;;;;;129.27;9.93;;;;;;;;;;5038404;28;20032;-57
2023/04/09 00:10:44;;;;;;;187.20;10.40;;;;;;;;;;5034886;28;20118;-57
2023/04/09 00:13:09;;;;;;;140.90;10.20;;;;;;;;;;5035081;28;20087;-58
2023/04/09 00:15:35;;;;;;;182.90;11.27;;;;;;;;;;5049779;28;20037;-56
2023/04/09 00:18:00;;;;;;;156.88;11.00;;;;;;;;;;5036373;28;20031;-57
2023/04/09 00:20:25;;;;;;;163.20;11.73;;;;;;;;;;5037766;28;20029;-57
2023/04/09 00:22:51;;;;;;;171.55;11.15;;;;;;;;;;5035864;28;20323;-55
2023/04/09 00:25:16;;;;;;;141.00;10.73;;;;;;;;;;5037671;28;20891;-55
2023/04/09 00:27:41;;;;;;;161.50;11.13;;;;;;;;;;5039248;28;20461;-55
2023/04/09 00:30:07;;;;;;;182.15;11.48;;;;;;;;;;5036562;28;20092;-55
2023/04/09 00:32:32;;;;;;;143.73;10.60;;;;;;;;;;5036914;28;20025;-55
2023/04/09 00:34:57;;;;;;;155.50;10.87;;;;;;;;;;5036056;28;20017;-58
2023/04/09 00:37:22;;;;;;;178.43;11.80;;;;;;;;;;5032796;28;20291;-56
2023/04/09 00:39:48;;;;;;;142.30;10.33;;;;;;;;;;5036200;28;20357;-56
2023/04/09 00:42:13;;;;;;;146.38;10.57;;;;;;;;;;5034010;28;20275;-55
2023/04/09 00:44:38;;;;;;;195.10;12.27;;;;;;;;;;5034404;28;20132;-57
2023/04/09 00:47:03;;;;;;;160.50;11.15;;;;;;;;;;5035131;28;20264;-56
2023/04/09 00:49:29;;;;;;;193.93;11.57;;;;;;;;;;5038219;28;20588;-54
2023/04/09 00:51:54;;;;;;;164.88;11.10;;;;;;;;;;5036341;28;20067;-55
2023/04/09 00:54:20;;;;;;;153.98;10.50;;;;;;;;;;5037718;28;20025;-57
2023/04/09 00:56:45;;;;;;;169.15;11.25;;;;;;;;;;5036580;28;20029;-55
2023/04/09 00:59:10;;;;;;;135.02;10.60;;;;;;;;;;5036799;28;20037;-56
2023/04/09 01:01:36;;;;;;;166.52;11.73;;;;;;;;;;5038368;28;20045;-55
2023/04/09 01:04:01;;;;;;;166.43;11.13;;;;;;;;;;5037281;28;20552;-58
2023/04/09 01:06:26;;;;;;;191.75;12.43;;;;;;;;;;5032697;28;20052;-59
2023/04/09 01:08:54;;;;;;;218.30;13.13;;;;;;;;;;5036314;28;20172;-58
2023/04/09 01:11:42;;;;;;;171.13;11.65;;;;;;;;;;5035554;28;20087;-55
2023/04/09 01:14:17;;;;;;;161.32;11.45;;;;;;;;;;5035613;28;20599;-56
2023/04/09 01:16:45;;;;;;;213.52;13.25;;;;;;;;;;5031593;28;20051;-55
2023/04/09 01:19:31;;;;;;;183.73;12.20;;;;;;;;;;5034645;28;20834;-55
2023/04/09 01:21:56;;;;;;;167.57;11.85;;;;;;;;;;5033286;28;20099;-56
2023/04/09 01:24:21;;;;;;;161.60;11.95;;;;;;;;;;5036115;28;20028;-55
2023/04/09 01:26:56;;;;;;;146.57;11.07;;;;;;;;;;5035488;28;20037;-56
2023/04/09 01:29:22;;;;;;;229.93;13.30;;;;;;;;;;5037378;28;20275;-56
2023/04/09 01:31:48;;;;;;;172.85;12.02;;;;;;;;;;5036114;28;20032;-56
2023/04/09 01:34:14;;;;;;;135.77;11.25;;;;;;;;;;5038455;28;20021;-58
2023/04/09 01:36:40;;;;;;;182.68;11.93;;;;;;;;;;5031766;28;20590;-56
2023/04/09 01:39:05;;;;;;;207.27;12.07;;;;;;;;;;5035999;28;20036;-55
2023/04/09 01:41:32;;;;;;;221.05;12.35;;;;;;;;;;5034994;28;20136;-55
2023/04/09 01:44:00;;;;;;;142.77;10.15;;;;;;;;;;5034116;28;20021;-57
2023/04/09 01:46:26;;;;;;;179.98;11.40;;;;;;;;;;5035874;28;20037;-58
2023/04/09 01:48:51;;;;;;;179.57;11.48;;;;;;;;;;5038113;28;20043;-55
2023/04/09 01:51:16;;;;;;;142.23;10.45;;;;;;;;;;5036961;28;20032;-55
2023/04/09 01:53:42;;;;;;;152.88;11.10;;;;;;;;;;5036034;28;20040;-58
2023/04/09 01:56:07;;;;;;;214.43;13.18;;;;;;;;;;5034706;28;20455;-59
2023/04/09 01:58:33;;;;;;;167.32;12.10;;;;;;;;;;5035931;28;20167;-57
2023/04/09 02:01:04;;;;;;;192.73;13.05;;;;;;;;;;5034662;28;20508;-55
2023/04/09 02:03:46;;;;;;;160.00;11.50;;;;;;;;;;5035852;28;20547;-55
2023/04/09 02:06:16;;;;;;;251.38;14.63;;;;;;;;;;5037023;28;20032;-56
2023/04/09 02:08:43;;;;;;;141.23;10.82;;;;;;;;;;5036827;28;20746;-58
2023/04/09 02:11:09;;;;;;;180.35;11.52;;;;;;;;;;5033791;28;20032;-56
2023/04/09 02:13:35;;;;;;;153.00;11.40;;;;;;;;;;5037087;28;20037;-55
2023/04/09 02:16:02;;;;;;;163.23;11.18;;;;;;;;;;5034130;28;20109;-55
2023/04/09 02:18:28;;;;;;;206.18;12.82;;;;;;;;;;5035912;28;20013;-56
2023/04/09 02:20:57;;;;;;;153.52;11.32;;;;;;;;;;5035946;28;20129;-58
2023/04/09 02:23:22;;;;;;;198.13;12.15;;;;;;;;;;5036225;28;20029;-58
2023/04/09 02:25:48;;;;;;;165.95;11.93;;;;;;;;;;5036875;28;20037;-56
2023/04/09 02:28:14;;;;;;;129.63;10.93;;;;;;;;;;5037292;28;20543;-57
2023/04/09 02:30:39;;;;;;;191.13;12.77;;;;;;;;;;5033845;28;20033;-56
2023/04/09 02:33:05;;;;;;;149.40;10.88;;;;;;;;;;5036261;28;20025;-58
2023/04/09 02:35:30;;;;;;;161.25;11.43;;;;;;;;;;5039078;28;20547;-55
2023/04/09 02:37:55;;;;;;;196.30;12.63;;;;;;;;;;5038661;28;20695;-57
2023/04/09 02:40:20;;;;;;;151.82;11.98;;;;;;;;;;5039598;28;20404;-57
2023/04/09 02:42:46;;;;;;;166.18;11.88;;;;;;;;;;5039701;28;20021;-58
2023/04/09 02:45:11;;;;;;;138.10;11.33;;;;;;;;;;5038142;28;20560;-56
2023/04/09 02:47:36;;;;;;;158.57;11.25;;;;;;;;;;5038263;28;20635;-55
2023/04/09 02:50:01;;;;;;;216.30;13.05;;;;;;;;;;5035835;28;20029;-56
2023/04/09 02:52:27;;;;;;;154.85;11.48;;;;;;;;;;5028207;28;20142;-55
2023/04/09 02:54:52;;;;;;;161.77;12.07;;;;;;;;;;5040266;28;20480;-56
2023/04/09 02:57:17;;;;;;;146.00;10.90;;;;;;;;;;5036018;28;20083;-57
2023/04/09 02:59:43;;;;;;;160.93;10.88;;;;;;;;;;5038626;28;20448;-56
2023/04/09 03:02:08;;;;;;;160.48;11.38;;;;;;;;;;5037704;28;20037;-55
2023/04/09 03:04:34;;;;;;;166.70;11.38;;;;;;;;;;5039852;28;20028;-55
2023/04/09 03:06:59;;;;;;;196.07;12.57;;;;;;;;;;5037435;28;20087;-56
2023/04/09 03:09:24;;;;;;;195.73;12.82;;;;;;;;;;5038473;28;20572;-56
2023/04/09 03:11:49;;;;;;;152.25;11.40;;;;;;;;;;5038716;28;20171;-55
2023/04/09 03:14:15;;;;;;;184.27;12.77;;;;;;;;;;5039826;28;20137;-56
2023/04/09 03:16:40;;;;;;;187.25;12.00;;;;;;;;;;5036052;28;20068;-58
2023/04/09 03:19:05;;;;;;;196.52;12.40;;;;;;;;;;5037971;28;20029;-56
2023/04/09 03:21:30;;;;;;;163.27;11.27;;;;;;;;;;5037870;28;20036;-57
2023/04/09 03:23:56;;;;;;;150.52;11.30;;;;;;;;;;5039063;28;20032;-58
2023/04/09 03:26:21;;;;;;;200.73;11.82;;;;;;;;;;5037188;28;20080;-55
2023/04/09 03:28:46;;;;;;;198.00;12.48;;;;;;;;;;5038796;28;20144;-57
2023/04/09 03:31:12;;;;;;;146.57;11.10;;;;;;;;;;5039146;28;20037;-59
2023/04/09 03:33:38;;;;;;;133.07;9.68;;;;;;;;;;5039710;28;20051;-58
2023/04/09 03:36:03;;;;;;;218.00;11.82;;;;;;;;;;5038459;28;20036;-55
2023/04/09 03:38:28;;;;;;;165.23;11.07;;;;;;;;;;5036591;28;20090;-57
2023/04/09 03:40:54;;;;;;;198.57;12.10;;;;;;;;;;5036141;28;20033;-57
2023/04/09 03:43:20;;;;;;;148.52;10.20;;;;;;;;;;5039347;28;20786;-59
2023/04/09 03:45:45;;;;;;;162.60;10.98;;;;;;;;;;5035840;28;20038;-56
2023/04/09 03:48:10;;;;;;;164.55;10.82;;;;;;;;;;5037855;28;20089;-55
2023/04/09 03:50:39;;;;;;;160.90;10.80;;;;;;;;;;5038187;28;20108;-58
2023/04/09 03:53:04;;;;;;;162.35;10.80;;;;;;;;;;5038509;28;20710;-58
2023/04/09 03:55:30;;;;;;;162.13;10.48;;;;;;;;;;5036751;28;20107;-56
2023/04/09 03:57:55;;;;;;;159.20;10.30;;;;;;;;;;5039627;28;20013;-58
2023/04/09 04:00:21;;;;;;;185.35;11.77;;;;;;;;;;5038741;28;20083;-58
2023/04/09 04:02:46;;;;;;;176.50;10.90;;;;;;;;;;5036778;28;20452;-56
2023/04/09 04:05:11;;;;;;;159.68;10.15;;;;;;;;;;5038123;28;20035;-56
2023/04/09 04:07:37;;;;;;;210.23;12.60;;;;;;;;;;5038237;28;20029;-58
2023/04/09 04:10:03;;;;;;;144.70;10.05;;;;;;;;;;5039012;28;20120;-56
2023/04/09 04:12:29;;;;;;;159.32;10.23;;;;;;;;;;5019309;28;20111;-55
2023/04/09 04:14:55;;;;;;;190.88;11.05;;;;;;;;;;5019502;28;20107;-57
2023/04/09 04:17:20;;;;;;;150.20;10.27;;;;;;;;;;5035797;28;20459;-59
2023/04/09 04:19:45;;;;;;;192.63;11.45;;;;;;;;;;5037711;28;20676;-58
2023/04/09 04:22:10;;;;;;;152.48;10.23;;;;;;;;;;5015358;28;20133;-55
2023/04/09 04:24:36;;;;;;;142.90;10.35;;;;;;;;;;5017684;28;20036;-57
2023/04/09 04:27:01;;;;;;;202.90;12.40;;;;;;;;;;5033245;28;20048;-55
2023/04/09 04:29:26;;;;;;;141.50;10.60;;;;;;;;;;5037270;28;20562;-55
2023/04/09 04:31:51;;;;;;;169.80;10.63;;;;;;;;;;5035161;28;20029;-55
2023/04/09 04:34:17;;;;;;;186.90;12.15;;;;;;;;;;5038833;28;20413;-57
2023/04/09 04:36:42;;;;;;;131.95;11.55;;;;;;;;;;5023139;28;20656;-55
2023/04/09 04:39:07;;;;;;;208.60;12.27;;;;;;;;;;5017449;28;20549;-57
2023/04/09 04:41:32;;;;;;;172.48;11.82;;;;;;;;;;5027079;28;20930;-56
2023/04/09 04:43:57;;;;;;;177.48;12.60;;;;;;;;;;5036909;28;20479;-56
2023/04/09 04:46:23;;;;;;;240.10;13.82;;;;;;;;;;5034061;28;20034;-58
2023/04/09 04:48:48;;;;;;;127.13;10.40;;;;;;;;;;5038531;28;20021;-56
2023/04/09 04:51:13;;;;;;;168.88;12.20;;;;;;;;;;5036902;28;20037;-55
2023/04/09 04:53:38;;;;;;;201.10;13.38;;;;;;;;;;5037802;28;20081;-56
2023/04/09 04:56:04;;;;;;;186.20;11.97;;;;;;;;;;5037522;28;20033;-56
2023/04/09 04:58:29;;;;;;;148.90;11.52;;;;;;;;;;5035529;28;20247;-57
2023/04/09 05:00:54;;;;;;;168.27;12.07;;;;;;;;;;5036204;28;20120;-58
2023/04/09 05:03:20;;;;;;;161.40;11.57;;;;;;;;;;5036806;28;20025;-57
2023/04/09 05:05:45;;;;;;;168.55;11.45;;;;;;;;;;5035160;28;20041;-55
2023/04/09 05:08:10;;;;;;;176.35;11.02;;;;;;;;;;5036248;28;20029;-55
2023/04/09 05:10:36;;;;;;;143.65;10.85;;;;;;;;;;5035762;28;20033;-56
2023/04/09 05:13:01;;;;;;;207.00;13.40;;;;;;;;;;5036775;28;20028;-57
2023/04/09 05:15:26;;;;;;;173.95;12.88;;;;;;;;;;5035278;28;20025;-57
2023/04/09 05:17:52;;;;;;;139.02;10.05;;;;;;;;;;5038262;28;20650;-58
2023/04/09 05:20:17;;;;;;;151.02;11.48;;;;;;;;;;5034588;28;20392;-55
2023/04/09 05:22:42;;;;;;;139.18;10.45;;;;;;;;;;5039270;28;20480;-57
2023/04/09 05:25:09;;;;;;;135.60;11.63;;;;;;;;;;5038561;28;20025;-57
2023/04/09 05:27:34;;;;;;;475.05;24.30;;;;;;;;;;5034113;28;20346;-57
2023/04/09 05:30:00;;;;;;;156.52;12.02;;;;;;;;;;5035685;28;20282;-56
2023/04/09 05:32:25;;;;;;;145.13;10.07;;;;;;;;;;5034620;28;20028;-56
2023/04/09 05:34:50;;;;;;;144.30;9.40;;;;;;;;;;5035659;28;20613;-56
2023/04/09 05:37:15;;;;;;;122.90;8.80;;;;;;;;;;5037956;28;20025;-57
2023/04/09 05:39:41;;;;;;;157.27;10.73;;;;;;;;;;5034116;28;20043;-56
2023/04/09 05:42:06;;;;;;;135.53;9.23;;;;;;;;;;5037446;28;20332;-58
2023/04/09 05:44:31;;;;;;;126.82;8.15;;;;;;;;;;5036898;28;20275;-57
2023/04/09 05:46:56;;;;;;;135.40;8.87;;;;;;;;;;5033103;28;20452;-57
2023/04/09 05:49:21;;;;;;;116.50;9.07;;;;;;;;;;5033145;28;20786;-57
2023/04/09 05:51:48;;;;;;;154.13;11.23;;;;;;;;;;5036215;28;20671;-58
2023/04/09 05:54:13;;;;;;;138.45;8.68;;;;;;;;;;5036935;28;20555;-56
2023/04/09 05:56:39;;;;;;;123.53;9.10;;;;;;;;;;5034599;28;20040;-57
2023/04/09 05:59:04;;;;;;;182.43;12.23;;;;;;;;;;5030967;28;20026;-59
2023/04/09 06:01:29;;;;;;;122.23;11.33;;;;;;;;;;5035998;28;20492;-57
2023/04/09 06:03:54;;;;;;;139.40;11.68;;;;;;;;;;5034438;28;20675;-57
2023/04/09 06:06:20;;;;;;;186.47;13.03;;;;;;;;;;5035944;28;20227;-58
2023/04/09 06:08:45;;;;;;;114.82;11.40;;;;;;;;;;5038346;28;20398;-57
2023/04/09 06:11:11;;;;;;;156.18;12.00;;;;;;;;;;5039199;28;20136;-57
2023/04/09 06:13:36;;;;;;;134.70;11.00;;;;;;;;;;5039406;28;20024;-56
2023/04/09 06:16:05;;;;;;;133.20;10.32;;;;;;;;;;5036855;28;20037;-56
2023/04/09 06:18:30;;;;;;;168.80;11.15;;;;;;;;;;5037644;28;20447;-57
2023/04/09 06:21:02;;;;;;;138.50;11.68;;;;;;;;;;5037523;28;20567;-60
2023/04/09 06:23:28;;;;;;;;;;;;;;;;;;5038151;28;20308;-57
2023/04/09 06:25:53;;;;;;;144.50;11.02;;;;;;;;;;5037682;28;19917;-57
2023/04/09 06:28:18;;;;;;;129.77;11.13;;;;;;;;;;5040688;28;20280;-58
2023/04/09 06:30:43;;;;;;;159.30;11.27;;;;;;;;;;5037979;28;20274;-57
2023/04/09 06:33:09;;;;;;;107.67;9.03;;;;;;;;;;5039213;28;20681;-57
2023/04/09 06:35:34;;;;;;;163.02;10.32;;;;;;;;;;5039409;28;20123;-56
2023/04/09 06:38:00;;;;;;;154.48;12.65;;;;;;;;;;5038619;28;20031;-59
2023/04/09 06:40:26;;;;;;;111.87;11.07;;;;;;;;;;5034861;28;20454;-59
2023/04/09 06:42:51;;;;;;;159.40;12.80;;;;;;;;;;5038300;28;20293;-57
2023/04/09 06:45:16;;;;;;;111.73;11.13;;;;;;;;;;5042363;28;20028;-59
2023/04/09 06:47:41;;;;;;;134.00;10.50;;;;;;;;;;5039061;28;20243;-59
2023/04/09 06:50:07;;;;;;;148.25;10.73;;;;;;;;;;5039195;28;20438;-57
2023/04/09 06:52:32;;;;;;;117.60;9.75;;;;;;;;;;5040249;28;20017;-59
2023/04/09 06:54:57;;;;;;;121.93;11.13;;;;;;;;;;5038225;28;20021;-60
2023/04/09 06:57:23;;;;;;;134.98;12.15;;;;;;;;;;5054183;28;20368;-60
2023/04/09 06:59:48;;;;;;;122.17;12.40;;;;;;;;;;5036367;28;20588;-59
2023/04/09 07:02:13;;;;;;;143.30;13.03;;;;;;;;;;5029536;28;20107;-61
2023/04/09 07:04:38;;;;;;;92.35;10.55;;;;;;;;;;5042192;28;20033;-61
2023/04/09 07:07:04;;;;;;;100.07;10.90;;;;;;;;;;5037894;28;20033;-61
2023/04/09 07:09:30;;;;;;;113.47;11.75;;;;;;;;;;5039038;28;20600;-60
2023/04/09 07:11:55;;;;;;;97.10;10.15;;;;;;;;;;5036138;28;20052;-60
2023/04/09 07:14:20;;;;;;;119.07;12.70;;;;;;;;;;5041971;28;20433;-60
2023/04/09 07:16:46;;;;;;;109.10;10.70;;;;;;;;;;5033376;28;20276;-60
2023/04/09 07:19:11;;;;;;;80.93;11.80;;;;;;;;;;5037342;28;20036;-60
2023/04/09 07:21:36;;;;;;;103.65;10.98;;;;;;;;;;5038039;28;20064;-61
2023/04/09 07:24:02;;;;;;;85.07;11.50;;;;;;;;;;5041553;28;20025;-60
2023/04/09 07:26:28;;;;;;;119.13;13.60;;;;;;;;;;5037063;28;20276;-58
2023/04/09 07:28:53;;;;;;;138.95;14.00;;;;;;;;;;5041914;28;20029;-59
2023/04/09 07:31:18;;;;;;;110.90;13.20;;;;;;;;;;5040766;28;20032;-58
2023/04/09 07:33:43;;;;;;;105.70;11.80;;;;;;;;;;5041781;28;20070;-57
2023/04/09 07:36:09;;;;;;;154.43;14.87;;;;;;;;;;5041308;28;20175;-58
2023/04/09 07:38:34;;;;;;;128.52;15.15;;;;;;;;;;5037711;28;20348;-57
2023/04/09 07:41:00;;;;;;;116.47;12.68;;;;;;;;;;5029506;28;20078;-60
2023/04/09 07:43:25;;;;;;;105.15;13.30;;;;;;;;;;5052417;28;20119;-59
2023/04/09 07:45:50;;;;;;;112.68;11.98;;;;;;;;;;5038182;28;20064;-58
2023/04/09 07:48:16;;;;;;;106.67;12.90;;;;;;;;;;5040747;28;20079;-60
2023/04/09 07:50:41;;;;;;;102.47;14.10;;;;;;;;;;5015081;28;20033;-61
2023/04/09 07:53:06;;;;;;;122.63;14.63;;;;;;;;;;5035170;28;20017;-58
2023/04/09 07:55:31;;;;;;;121.37;13.67;;;;;;;;;;5036201;28;20104;-59
2023/04/09 07:57:57;;;;;;;97.22;12.30;;;;;;;;;;5037978;28;20506;-58
2023/04/09 08:00:22;;;;;;;96.70;13.15;;;;;;;;;;5036519;28;20039;-61
2023/04/09 08:02:48;;;;;;;103.03;12.10;;;;;;;;;;5042304;28;20492;-58
2023/04/09 08:05:13;;;;;;;85.17;12.23;;;;;;;;;;5019090;28;20099;-58
2023/04/09 08:07:38;;;;;;;105.77;13.67;;;;;;;;;;5040671;28;20282;-59
2023/04/09 08:10:05;;;;;;;93.10;12.65;;;;;;;;;;5039694;28;20401;-57
2023/04/09 08:12:30;;;;;;;119.57;13.32;;;;;;;;;;5039198;28;20429;-58
2023/04/09 08:14:55;;;;;;;127.37;12.93;;;;;;;;;;5038477;28;20487;-57
2023/04/09 08:17:21;;;;;;;86.38;10.73;;;;;;;;;;5039942;28;20322;-57
2023/04/09 08:19:46;;;;;;;104.35;13.02;;;;;;;;;;5037697;28;20100;-57
2023/04/09 08:22:11;;;;;;;233.87;16.77;;;;;;;;;;5024680;28;20032;-58
2023/04/09 08:24:39;;;;;;;149.53;14.57;;;;;;;;;;5033911;28;20263;-59
2023/04/09 08:27:04;;;;;;;109.03;12.20;;;;;;;;;;5035486;28;20255;-58
2023/04/09 08:29:30;;;;;;;97.23;13.03;;;;;;;;;;5039776;28;20032;-58
2023/04/09 08:31:56;;;;;;;153.65;13.77;;;;;;;;;;5051683;28;20271;-59
2023/04/09 08:34:21;;;;;;;126.97;13.30;;;;;;;;;;5039201;28;20544;-58
2023/04/09 08:36:48;;;;;;;92.22;12.50;;;;;;;;;;5037112;28;20029;-60
2023/04/09 08:39:14;;;;;;;90.28;9.23;;;;;;;;;;5038635;28;20581;-58
2023/04/09 08:41:41;;;;;;;136.35;12.32;;;;;;;;;;5036711;28;20034;-58
2023/04/09 08:44:07;;;;;;;110.20;13.00;;;;;;;;;;5040549;28;20029;-57
2023/04/09 08:46:34;;;;;;;123.40;12.38;;;;;;;;;;5036787;28;20052;-58
2023/04/09 08:49:00;;;;;;;148.30;15.00;;;;;;;;;;5038424;28;20025;-61
2023/04/09 08:51:25;;;;;;;116.30;12.27;;;;;;;;;;5034890;28;20299;-61
2023/04/09 08:54:00;;;;;;;109.03;12.77;;;;;;;;;;5039036;28;20381;-60
2023/04/09 08:56:26;;;;;;;146.60;14.55;;;;;;;;;;5034386;28;20041;-60
2023/04/09 08:58:52;;;;;;;141.10;14.32;;;;;;;;;;5036588;28;20405;-58
2023/04/09 09:01:24;;;;;;;114.95;13.25;;;;;;;;;;5040159;28;20036;-61
2023/04/09 09:03:52;;;;;;;427.55;25.67;;;;;;;;;;5032236;28;20487;-58
2023/04/09 09:06:22;;;;;;;182.38;14.30;;;;;;;;;;5033584;28;20036;-60
2023/04/09 09:09:04;;;;;;;104.28;11.50;;;;;;;;;;5039701;28;20123;-58
2023/04/09 09:11:29;;;;;;;98.53;12.15;;;;;;;;;;5038413;28;20033;-58
2023/04/09 09:14:02;;;;;;;105.72;11.30;;;;;;;;;;5036819;28;20195;-59
2023/04/09 09:16:28;;;;;;;121.78;12.43;;;;;;;;;;5038150;28;20052;-61
2023/04/09 09:18:55;;;;;;;136.88;11.40;;;;;;;;;;5038130;28;20048;-58
2023/04/09 09:21:21;;;;;;;130.55;13.10;;;;;;;;;;5038209;28;20045;-59
2023/04/09 09:23:49;;;;;;;117.35;13.07;;;;;;;;;;5039544;28;20025;-57
2023/04/09 09:26:17;;;;;;;163.70;14.88;;;;;;;;;;5038315;28;20494;-57
2023/04/09 09:28:42;;;;;;;105.97;11.32;;;;;;;;;;5039500;28;20072;-60
2023/04/09 09:31:08;;;;;;;94.05;10.25;;;;;;;;;;5037169;28;20175;-62
2023/04/09 09:33:34;;;;;;;118.70;11.23;;;;;;;;;;5040422;28;20310;-59
2023/04/09 09:36:02;;;;;;;137.60;12.57;;;;;;;;;;5034785;28;20028;-60
2023/04/09 09:38:27;;;;;;;100.93;11.35;;;;;;;;;;5021518;28;20025;-61
2023/04/09 09:40:53;;;;;;;101.88;10.50;;;;;;;;;;5037748;28;20037;-60
2023/04/09 09:43:18;;;;;;;127.87;11.93;;;;;;;;;;5033201;28;20025;-59
2023/04/09 09:45:45;;;;;;;121.60;12.57;;;;;;;;;;5035913;28;20642;-61
2023/04/09 09:48:11;;;;;;;200.50;13.77;;;;;;;;;;5036127;28;20665;-58
2023/04/09 09:50:37;;;;;;;193.45;14.25;;;;;;;;;;5035194;28;20094;-60
2023/04/09 09:53:04;;;;;;;131.38;11.95;;;;;;;;;;5032235;28;20658;-60
2023/04/09 09:55:31;;;;;;;137.23;10.73;;;;;;;;;;5036502;28;20033;-60
2023/04/09 09:57:57;;;;;;;105.50;11.27;;;;;;;;;;5037205;28;20025;-58
2023/04/09 10:00:24;;;;;;;92.85;9.98;;;;;;;;;;5038600;28;20017;-60
2023/04/09 10:02:56;;;;;;;111.10;9.63;;;;;;;;;;5036470;28;20488;-59
2023/04/09 10:05:25;;;;;;;;;;;;;;;;;;5036641;28;20017;-59
2023/04/09 10:07:50;;;;;;;110.72;10.98;;;;;;;;;;5037731;28;19905;-58
2023/04/09 10:10:16;;;;;;;105.68;10.77;;;;;;;;;;5038053;28;20028;-62
2023/04/09 10:12:44;;;;;;;152.30;12.13;;;;;;;;;;5036170;28;20594;-61
2023/04/09 10:15:09;;;;;;;109.38;10.50;;;;;;;;;;5036941;28;20028;-61
2023/04/09 10:17:35;;;;;;;107.32;10.70;;;;;;;;;;5034333;28;20017;-61
2023/04/09 10:20:11;;;;;;;152.65;11.85;;;;;;;;;;5035840;28;20023;-60
2023/04/09 10:22:37;;;;;;;128.35;12.15;;;;;;;;;;5037179;28;20510;-61
2023/04/09 10:25:03;;;;;;;127.57;11.77;;;;;;;;;;5036482;28;20344;-61
2023/04/09 10:27:28;;;;;;;100.03;8.93;;;;;;;;;;5035979;28;20034;-59
2023/04/09 10:29:54;;;;;;;155.80;10.37;;;;;;;;;;5034844;28;20767;-60
2023/04/09 10:32:20;;;;;;;140.85;10.68;;;;;;;;;;5020760;28;20260;-59
2023/04/09 10:34:45;;;;;;;119.03;9.55;;;;;;;;;;5039678;28;20055;-58
2023/04/09 10:37:15;;;;;;;136.95;11.38;;;;;;;;;;5037835;28;20140;-58
2023/04/09 10:39:45;;;;;;;91.65;9.60;;;;;;;;;;5037906;28;20641;-59
2023/04/09 10:42:12;;;;;;;148.52;10.98;;;;;;;;;;5038095;28;20044;-59
2023/04/09 10:44:40;;;;;;;161.70;12.05;;;;;;;;;;5036561;28;20027;-60
2023/04/09 10:47:05;;;;;;;141.75;9.23;;;;;;;;;;5035911;28;20068;-58
2023/04/09 10:49:37;;;;;;;142.82;9.93;;;;;;;;;;5035000;28;20123;-58
2023/04/09 10:52:09;;;;;;;121.38;9.98;;;;;;;;;;5036469;28;20036;-57
2023/04/09 10:54:34;;;;;;;121.03;10.43;;;;;;;;;;5038432;28;20986;-61
2023/04/09 10:57:05;;;;;;;120.90;9.18;;;;;;;;;;5041127;28;20687;-61
2023/04/09 10:59:31;;;;;;;148.52;10.98;;;;;;;;;;5037143;28;20051;-61
2023/04/09 11:01:56;;;;;;;145.07;10.27;;;;;;;;;;5035907;28;20032;-58
2023/04/09 11:04:25;;;;;;;117.33;8.67;;;;;;;;;;5037597;28;20060;-61
2023/04/09 11:06:51;;;;;;;164.10;10.70;;;;;;;;;;5041038;28;20057;-60
2023/04/09 11:09:16;;;;;;;106.20;8.85;;;;;;;;;;5045366;28;20056;-61
2023/04/09 11:11:41;;;;;;;138.23;9.80;;;;;;;;;;5041718;28;20678;-61
2023/04/09 11:14:07;;;;;;;114.82;9.23;;;;;;;;;;5038912;28;20488;-58
2023/04/09 11:16:32;;;;;;;127.85;9.52;;;;;;;;;;5039225;28;20045;-60
2023/04/09 11:18:57;;;;;;;184.32;11.95;;;;;;;;;;5040523;28;20033;-61
2023/04/09 11:21:27;;;;;;;153.43;10.75;;;;;;;;;;5038013;28;20065;-60
2023/04/09 11:23:52;;;;;;;124.45;9.15;;;;;;;;;;5037865;28;20036;-60
2023/04/09 11:26:27;;;;;;;188.20;11.50;;;;;;;;;;5036329;28;20025;-58
2023/04/09 11:28:54;;;;;;;237.35;13.65;;;;;;;;;;5038142;28;20108;-59
2023/04/09 11:31:25;;;;;;;132.13;9.45;;;;;;;;;;5036730;28;20041;-57
2023/04/09 11:33:50;;;;;;;132.38;9.40;;;;;;;;;;5038829;28;20032;-59
2023/04/09 11:36:16;;;;;;;221.80;12.47;;;;;;;;;;5053752;28;20036;-57
2023/04/09 11:38:41;;;;;;;128.57;9.75;;;;;;;;;;5040487;28;20794;-59
2023/04/09 11:41:11;;;;;;;131.30;9.73;;;;;;;;;;5037852;28;20472;-60
2023/04/09 11:43:36;;;;;;;132.88;9.65;;;;;;;;;;5040150;28;20311;-58
2023/04/09 11:46:02;;;;;;;111.88;8.98;;;;;;;;;;5039449;28;20179;-57
2023/04/09 11:48:29;;;;;;;157.50;10.38;;;;;;;;;;5034907;28;20028;-60
2023/04/09 11:50:54;;;;;;;111.00;8.82;;;;;;;;;;5038799;28;20579;-59
2023/04/09 11:53:20;;;;;;;103.85;8.43;;;;;;;;;;5041304;28;20027;-60
2023/04/09 11:55:47;;;;;;;169.68;10.52;;;;;;;;;;5032472;28;20033;-57
2023/04/09 11:58:12;;;;;;;151.63;9.95;;;;;;;;;;5007740;28;20758;-57
2023/04/09 12:00:39;;;;;;;231.07;12.63;;;;;;;;;;5034778;28;20044;-58
2023/04/09 12:03:05;;;;;;;163.40;10.60;;;;;;;;;;5037145;28;20526;-58
2023/04/09 12:05:32;;;;;;;151.57;10.50;;;;;;;;;;5039522;28;20025;-56
2023/04/09 12:08:01;;;;;;;244.00;13.52;;;;;;;;;;5034736;28;20501;-59
2023/04/09 12:10:27;;;;;;;175.93;10.48;;;;;;;;;;5037899;28;20044;-56
2023/04/09 12:12:52;;;;;;;171.60;10.45;;;;;;;;;;5037168;28;20087;-54
2023/04/09 12:15:24;;;;;;;178.03;10.17;;;;;;;;;;5037641;28;20381;-55
2023/04/09 12:17:52;;;;;;;103.82;8.15;;;;;;;;;;5036450;28;20263;-56
2023/04/09 12:20:28;;;;;;;146.85;9.27;;;;;;;;;;5038133;28;20927;-59
2023/04/09 12:22:54;;;;;;;153.90;9.65;;;;;;;;;;5038438;28;20025;-58
2023/04/09 12:25:19;;;;;;;230.20;12.32;;;;;;;;;;5036346;28;20024;-57
2023/04/09 12:27:44;;;;;;;189.88;11.07;;;;;;;;;;5036961;28;20017;-57
2023/04/09 12:30:10;;;;;;;103.00;8.77;;;;;;;;;;5034614;28;20715;-59
2023/04/09 12:32:35;;;;;;;170.32;10.77;;;;;;;;;;5040191;28;20251;-58
2023/04/09 12:35:01;;;;;;;140.55;9.38;;;;;;;;;;5035400;28;20082;-61
2023/04/09 12:37:27;;;;;;;148.23;8.63;;;;;;;;;;5033391;28;20136;-61
2023/04/09 12:39:52;;;;;;;126.13;8.38;;;;;;;;;;5034488;28;20136;-59
2023/04/09 12:42:18;;;;;;;123.03;8.88;;;;;;;;;;5032545;28;20037;-59
2023/04/09 12:44:43;;;;;;;157.50;9.90;;;;;;;;;;5037588;28;20310;-58
2023/04/09 12:47:08;;;;;;;102.60;9.27;;;;;;;;;;5037363;28;20465;-60
2023/04/09 12:49:33;;;;;;;143.77;9.65;;;;;;;;;;5036095;28;20683;-58
2023/04/09 12:51:59;;;;;;;194.93;11.07;;;;;;;;;;5034667;28;20036;-59
2023/04/09 12:54:25;;;;;;;197.23;10.98;;;;;;;;;;5036264;28;20587;-57
2023/04/09 12:56:50;;;;;;;205.70;11.07;;;;;;;;;;5034612;28;20447;-57
2023/04/09 12:59:15;;;;;;;190.18;10.57;;;;;;;;;;5034690;28;20028;-59
2023/04/09 13:01:41;;;;;;;182.98;11.10;;;;;;;;;;5025755;28;20041;-58
2023/04/09 13:04:06;;;;;;;187.93;11.50;;;;;;;;;;5037364;28;20305;-59
2023/04/09 13:06:31;;;;;;;212.77;10.13;;;;;;;;;;5035697;28;20280;-58
2023/04/09 13:08:56;;;;;;;230.63;12.17;;;;;;;;;;5036602;28;21052;-55
2023/04/09 13:11:22;;;;;;;231.77;13.27;;;;;;;;;;5037266;28;20305;-54
2023/04/09 13:13:47;;;;;;;199.35;11.77;;;;;;;;;;5033417;28;20617;-57
2023/04/09 13:16:12;;;;;;;265.33;13.97;;;;;;;;;;5036077;28;20048;-56
2023/04/09 13:18:37;;;;;;;168.48;10.43;;;;;;;;;;5033079;28;20017;-55
2023/04/09 13:21:03;;;;;;;115.35;9.02;;;;;;;;;;5034992;28;20454;-55
2023/04/09 13:23:28;;;;;;;181.70;10.65;;;;;;;;;;5035812;28;20025;-56
2023/04/09 13:25:53;;;;;;;139.53;9.40;;;;;;;;;;5033026;28;20032;-54
2023/04/09 13:28:18;;;;;;;124.80;8.48;;;;;;;;;;5036502;28;20416;-58
2023/04/09 13:30:44;;;;;;;159.43;9.00;;;;;;;;;;5033243;28;20424;-58
2023/04/09 13:33:09;;;;;;;110.40;9.63;;;;;;;;;;5036975;28;20178;-56
2023/04/09 13:35:34;;;;;;;123.55;10.05;;;;;;;;;;5034446;28;20068;-58
2023/04/09 13:38:00;;;;;;;119.30;9.70;;;;;;;;;;5048835;28;20032;-60
2023/04/09 13:40:25;;;;;;;160.77;10.70;;;;;;;;;;5013990;28;20274;-60
2023/04/09 13:42:50;;;;;;;208.05;11.00;;;;;;;;;;5032237;28;20108;-58
2023/04/09 13:45:16;;;;;;;162.87;11.20;;;;;;;;;;5034777;28;20079;-56
2023/04/09 13:47:42;;;;;;;180.25;11.40;;;;;;;;;;5034859;28;20370;-57
2023/04/09 13:50:09;;;;;;;216.07;12.27;;;;;;;;;;5033496;28;20032;-55
2023/04/09 13:52:34;;;;;;;187.13;11.60;;;;;;;;;;5035207;28;20256;-56
2023/04/09 13:55:00;;;;;;;219.45;12.55;;;;;;;;;;5035163;28;20079;-57
2023/04/09 13:57:26;;;;;;;185.63;10.85;;;;;;;;;;5032507;28;20096;-58
2023/04/09 13:59:51;;;;;;;202.02;11.57;;;;;;;;;;5036413;28;20169;-58
2023/04/09 14:02:16;;;;;;;242.37;12.70;;;;;;;;;;5036395;28;20327;-61